createdAt,value
2022-08-12T00:00:50.257Z,15.90
2022-08-12T00:03:35.971Z,15.80
2022-08-12T00:06:23.451Z,15.70
2022-08-12T00:09:09.364Z,15.80
2022-08-12T00:11:55.948Z,15.90
2022-08-12T00:14:42.478Z,16.10
2022-08-12T00:17:27.832Z,16.20
2022-08-12T00:20:13.611Z,16.20
2022-08-12T00:23:00.199Z,16.10
2022-08-12T00:26:23.240Z,16.00
2022-08-12T00:29:06.182Z,15.90
2022-08-12T00:31:51.625Z,15.80
2022-08-12T00:34:37.543Z,15.90
2022-08-12T00:37:25.564Z,15.90
2022-08-12T00:40:14.326Z,15.80
2022-08-12T00:42:42.570Z,15.90
2022-08-12T00:45:11.603Z,15.80
2022-08-12T00:47:39.596Z,15.90
2022-08-12T00:50:07.070Z,15.90
2022-08-12T00:52:35.451Z,16.00
2022-08-12T00:55:04.859Z,15.90
2022-08-12T00:57:37.987Z,15.90
2022-08-12T01:00:08.721Z,15.80
2022-08-12T01:02:38.892Z,15.80
2022-08-12T01:05:35.766Z,15.80
2022-08-12T01:08:22.216Z,15.80
2022-08-12T01:11:08.479Z,15.90
2022-08-12T01:13:39.271Z,15.80
2022-08-12T01:16:08.870Z,15.80
2022-08-12T01:18:38.792Z,15.80
2022-08-12T01:21:27.828Z,15.70
2022-08-12T01:24:28.113Z,15.70
2022-08-12T01:26:59.444Z,15.70
2022-08-12T01:29:33.301Z,15.70
2022-08-12T01:32:06.234Z,15.90
2022-08-12T01:34:38.712Z,16.00
2022-08-12T01:37:08.329Z,16.00
2022-08-12T01:40:34.843Z,16.10
2022-08-12T01:42:51.973Z,16.20
2022-08-12T01:45:24.430Z,16.40
2022-08-12T01:48:13.216Z,16.40
2022-08-12T01:51:09.879Z,16.30
2022-08-12T01:54:00.131Z,16.00
2022-08-12T01:56:35.579Z,15.70
2022-08-12T01:59:23.344Z,15.40
2022-08-12T02:01:52.729Z,15.30
2022-08-12T02:04:59.435Z,15.10
2022-08-12T02:08:25.091Z,14.90
2022-08-12T02:11:25.765Z,14.70
2022-08-12T02:14:11.588Z,14.50
2022-08-12T02:16:53.426Z,14.50
2022-08-12T02:19:59.350Z,14.30
2022-08-12T02:22:31.433Z,14.20
2022-08-12T02:25:24.979Z,14.10
2022-08-12T02:27:53.561Z,14.10
2022-08-12T02:30:38.355Z,14.00
2022-08-12T02:33:10.628Z,14.00
2022-08-12T02:35:39.502Z,13.90
2022-08-12T02:38:10.093Z,13.80
2022-08-12T02:40:39.394Z,13.80
2022-08-12T02:43:34.474Z,13.80
2022-08-12T02:46:10.395Z,13.60
2022-08-12T02:48:46.323Z,13.60
2022-08-12T02:51:17.437Z,13.60
2022-08-12T02:53:45.310Z,13.50
2022-08-12T02:56:31.043Z,13.40
2022-08-12T02:58:59.463Z,13.40
2022-08-12T03:01:34.086Z,13.40
2022-08-12T03:04:04.170Z,13.30
2022-08-12T03:06:48.030Z,13.40
2022-08-12T03:09:16.679Z,13.30
2022-08-12T03:12:05.202Z,13.20
2022-08-12T03:14:35.046Z,13.10
2022-08-12T03:17:15.543Z,13.10
2022-08-12T03:20:09.527Z,13.10
2022-08-12T03:22:34.284Z,13.10
2022-08-12T03:25:03.731Z,13.00
2022-08-12T03:27:31.880Z,13.00
2022-08-12T03:29:59.541Z,13.00
2022-08-12T03:32:35.589Z,12.90
2022-08-12T03:35:07.697Z,12.90
2022-08-12T03:37:36.622Z,12.90
2022-08-12T03:40:04.978Z,12.80
2022-08-12T03:42:52.039Z,12.70
2022-08-12T03:45:52.177Z,12.60
2022-08-12T03:48:39.339Z,12.60
2022-08-12T03:54:03.119Z,12.70
2022-08-12T03:56:50.942Z,12.70
2022-08-12T03:59:36.847Z,12.70
2022-08-12T04:02:03.771Z,12.60
2022-08-12T04:04:35.067Z,12.50
2022-08-12T04:07:06.989Z,12.50
2022-08-12T04:09:34.897Z,12.40
2022-08-12T04:12:22.306Z,12.40
2022-08-12T04:14:54.365Z,12.30
2022-08-12T04:17:21.427Z,12.30
2022-08-12T04:19:49.216Z,12.30
2022-08-12T04:22:16.883Z,12.30
2022-08-12T04:24:50.524Z,12.20
2022-08-12T04:27:17.658Z,12.30
2022-08-12T04:30:29.243Z,12.40
2022-08-12T04:32:32.269Z,12.40
2022-08-12T04:34:59.460Z,12.40
2022-08-12T04:37:26.415Z,12.50
2022-08-12T04:39:54.161Z,12.60
2022-08-12T04:42:25.464Z,12.60
2022-08-12T04:44:52.569Z,12.60
2022-08-12T04:47:21.415Z,12.60
2022-08-12T04:49:49.192Z,12.60
2022-08-12T04:52:16.216Z,12.70
2022-08-12T04:54:44.024Z,12.90
2022-08-12T04:57:11.162Z,13.10
2022-08-12T04:59:47.850Z,13.20
2022-08-12T05:02:20.885Z,13.30
2022-08-12T05:05:01.118Z,13.40
2022-08-12T05:07:28.604Z,13.60
2022-08-12T05:09:59.762Z,13.70
2022-08-12T05:12:42.955Z,13.70
2022-08-12T05:15:19.178Z,13.80
2022-08-12T05:17:56.240Z,14.70
2022-08-12T05:20:27.056Z,17.40
2022-08-12T05:23:12.896Z,19.40
2022-08-12T05:25:43.044Z,20.80
2022-08-12T05:28:10.963Z,22.20
2022-08-12T05:30:37.730Z,23.10
2022-08-12T05:33:06.123Z,24.20
2022-08-12T05:35:43.130Z,25.00
2022-08-12T05:38:34.254Z,24.80
2022-08-12T05:41:02.483Z,25.00
2022-08-12T05:43:29.757Z,26.00
2022-08-12T05:45:56.732Z,26.70
2022-08-12T05:48:24.400Z,26.90
2022-08-12T05:50:52.924Z,27.00
2022-08-12T05:53:19.884Z,28.00
2022-08-12T05:55:46.713Z,28.70
2022-08-12T05:58:13.500Z,28.60
2022-08-12T06:00:42.334Z,28.70
2022-08-12T06:03:09.160Z,27.80
2022-08-12T06:05:43.045Z,28.20
2022-08-12T06:08:23.397Z,28.60
2022-08-12T06:10:50.763Z,28.70
2022-08-12T06:13:28.112Z,28.80
2022-08-12T06:15:58.897Z,28.90
2022-08-12T06:18:29.745Z,29.10
2022-08-12T06:21:00.197Z,29.40
2022-08-12T06:23:29.721Z,29.00
2022-08-12T06:25:57.927Z,28.40
2022-08-12T06:28:25.667Z,28.50
2022-08-12T06:31:22.353Z,28.70
2022-08-12T06:33:57.713Z,28.80
2022-08-12T06:36:30.061Z,28.80
2022-08-12T06:39:00.920Z,29.00
2022-08-12T06:42:05.155Z,29.00
2022-08-12T06:44:33.144Z,28.90
2022-08-12T06:47:00.732Z,28.10
2022-08-12T06:49:33.423Z,28.60
2022-08-12T06:52:00.194Z,28.80
2022-08-12T06:54:31.643Z,29.20
2022-08-12T06:57:04.733Z,29.30
2022-08-12T06:59:32.601Z,29.30
2022-08-12T07:01:59.449Z,29.00
2022-08-12T07:04:36.187Z,28.40
2022-08-12T07:07:08.808Z,28.50
2022-08-12T07:10:04.902Z,27.80
2022-08-12T07:12:26.554Z,27.90
2022-08-12T07:14:54.525Z,27.30
2022-08-12T07:17:21.401Z,27.70
2022-08-12T07:19:50.012Z,28.40
2022-08-12T07:22:16.933Z,28.40
2022-08-12T07:25:04.352Z,28.60
2022-08-12T07:27:38.718Z,28.30
2022-08-12T07:30:07.750Z,28.40
2022-08-12T07:32:34.536Z,28.30
2022-08-12T07:35:02.190Z,28.80
2022-08-12T07:37:29.158Z,29.30
2022-08-12T07:40:00.051Z,28.70
2022-08-12T07:42:29.037Z,29.50
2022-08-12T07:44:56.374Z,29.70
2022-08-12T07:47:24.444Z,29.30
2022-08-12T07:50:05.873Z,29.40
2022-08-12T07:52:38.746Z,30.10
2022-08-12T07:55:06.794Z,30.50
2022-08-12T07:57:34.136Z,31.10
2022-08-12T08:00:03.750Z,31.10
2022-08-12T08:02:35.765Z,31.20
2022-08-12T08:05:03.817Z,31.30
2022-08-12T08:07:41.283Z,31.50
2022-08-12T08:10:10.903Z,29.50
2022-08-12T08:12:58.773Z,27.20
2022-08-12T08:16:01.705Z,28.20
2022-08-12T08:18:27.607Z,29.30
2022-08-12T08:20:56.411Z,29.90
2022-08-12T08:23:43.660Z,29.40
2022-08-12T08:26:15.646Z,30.90
2022-08-12T08:28:43.324Z,29.20
2022-08-12T08:31:10.112Z,27.80
2022-08-12T08:34:05.471Z,26.90
2022-08-12T08:36:24.391Z,26.90
2022-08-12T08:38:58.218Z,27.30
2022-08-12T08:42:17.516Z,26.80
2022-08-12T08:44:39.568Z,27.70
2022-08-12T08:47:08.078Z,27.60
2022-08-12T08:49:37.386Z,27.80
2022-08-12T08:52:08.946Z,28.70
2022-08-12T08:54:37.617Z,28.40
2022-08-12T08:57:09.291Z,28.00
2022-08-12T08:59:36.200Z,27.90
2022-08-12T09:02:03.350Z,27.40
2022-08-12T09:05:13.899Z,27.00
2022-08-12T09:07:43.845Z,26.50
2022-08-12T09:10:09.219Z,27.20
2022-08-12T09:15:57.624Z,27.10
2022-08-12T09:18:33.118Z,27.90
2022-08-12T09:24:00.124Z,26.60
2022-08-12T09:26:29.737Z,26.00
2022-08-12T09:28:58.268Z,26.20
2022-08-12T09:32:07.944Z,26.20
2022-08-12T09:34:27.873Z,26.50
2022-08-12T09:37:02.877Z,27.50
2022-08-12T09:40:06.480Z,28.00
2022-08-12T09:43:11.239Z,28.20
2022-08-12T09:46:11.902Z,28.70
2022-08-12T09:48:34.942Z,28.90
2022-08-12T09:51:17.247Z,27.90
2022-08-12T09:54:05.624Z,27.70
2022-08-12T09:57:00.080Z,28.40
2022-08-12T10:00:15.137Z,28.90
2022-08-12T10:02:44.332Z,28.40
2022-08-12T10:04:59.591Z,28.60
2022-08-12T10:07:29.158Z,28.70
2022-08-12T10:10:24.354Z,28.40
2022-08-12T10:13:36.981Z,28.30
2022-08-12T10:16:38.634Z,27.80
2022-08-12T10:19:06.540Z,28.10
2022-08-12T10:21:45.309Z,28.70
2022-08-12T10:24:20.322Z,28.50
2022-08-12T10:27:06.703Z,27.20
2022-08-12T10:30:38.700Z,27.80
2022-08-12T10:32:43.766Z,27.30
2022-08-12T10:35:14.351Z,28.40
2022-08-12T10:38:36.188Z,27.70
2022-08-12T10:40:33.080Z,26.20
2022-08-12T10:43:20.086Z,26.70
2022-08-12T10:45:53.768Z,26.80
2022-08-12T10:48:33.229Z,26.70
2022-08-12T10:51:51.515Z,26.70
2022-08-12T10:54:00.549Z,28.10
2022-08-12T10:56:34.514Z,28.50
2022-08-12T10:59:10.448Z,27.00
2022-08-12T11:04:18.084Z,27.80
2022-08-12T11:04:45.132Z,28.30
2022-08-12T11:08:38.512Z,26.70
2022-08-12T11:10:02.498Z,27.50
2022-08-12T11:12:54.844Z,27.80
2022-08-12T11:15:32.709Z,26.90
2022-08-12T11:18:12.020Z,27.40
2022-08-12T11:20:48.573Z,27.90
2022-08-12T11:23:25.945Z,28.60
2022-08-12T11:26:05.884Z,28.30
2022-08-12T11:28:37.236Z,28.80
2022-08-12T11:31:12.273Z,28.90
2022-08-12T11:34:05.190Z,29.20
2022-08-12T11:36:29.749Z,28.20
2022-08-12T11:38:57.987Z,28.20
2022-08-12T11:41:31.843Z,27.60
2022-08-12T11:44:30.778Z,26.50
2022-08-12T11:46:51.514Z,26.70
2022-08-12T11:49:31.497Z,27.10
2022-08-12T11:52:01.240Z,27.70
2022-08-12T11:54:29.429Z,28.70
2022-08-12T11:56:59.817Z,29.20
2022-08-12T12:02:19.277Z,28.30
2022-08-12T12:04:52.921Z,27.20
2022-08-12T12:08:38.648Z,26.90
2022-08-12T12:10:17.912Z,27.50
2022-08-12T12:12:50.241Z,27.10
2022-08-12T12:15:25.315Z,27.10
2022-08-12T12:18:05.284Z,26.90
2022-08-12T12:20:32.054Z,27.10
2022-08-12T12:22:58.852Z,27.80
2022-08-12T12:25:59.673Z,27.60
2022-08-12T12:28:35.284Z,27.70
2022-08-12T12:31:01.236Z,27.20
2022-08-12T12:33:57.583Z,27.10
2022-08-12T12:36:24.089Z,27.20
2022-08-12T12:38:54.855Z,27.80
2022-08-12T12:41:21.876Z,28.80
2022-08-12T12:44:08.628Z,28.90
2022-08-12T12:46:40.288Z,29.10
2022-08-12T12:49:15.360Z,29.30
2022-08-12T12:51:55.100Z,29.70
2022-08-12T12:54:29.255Z,28.40
2022-08-12T12:56:56.039Z,27.70
2022-08-12T12:59:55.256Z,27.70
2022-08-12T13:02:11.405Z,27.40
2022-08-12T13:04:38.256Z,28.10
2022-08-12T13:07:06.513Z,28.50
2022-08-12T13:09:36.404Z,27.80
2022-08-12T13:12:06.539Z,28.40
2022-08-12T13:14:35.052Z,28.20
2022-08-12T13:17:02.682Z,28.80
2022-08-12T13:19:37.401Z,28.60
2022-08-12T13:22:18.439Z,28.70
2022-08-12T13:24:54.954Z,28.90
2022-08-12T13:27:35.663Z,28.90
2022-08-12T13:30:12.377Z,28.80
2022-08-12T13:32:57.340Z,28.80
2022-08-12T13:36:02.968Z,28.40
2022-08-12T13:38:13.232Z,27.50
2022-08-12T13:40:40.511Z,27.60
2022-08-12T13:43:07.490Z,27.70
2022-08-12T13:45:35.615Z,28.00
2022-08-12T13:48:05.566Z,27.50
2022-08-12T13:50:37.496Z,28.00
2022-08-12T13:53:23.171Z,28.20
2022-08-12T13:55:59.532Z,28.40
2022-08-12T13:58:30.411Z,28.80
2022-08-12T14:00:58.294Z,27.60
2022-08-12T14:03:28.263Z,26.80
2022-08-12T14:05:59.589Z,26.60
2022-08-12T14:08:34.502Z,26.60
2022-08-12T14:11:02.280Z,26.60
2022-08-12T14:14:05.411Z,26.90
2022-08-12T14:16:37.984Z,26.90
2022-08-12T14:19:10.665Z,27.10
2022-08-12T14:22:00.536Z,27.70
2022-08-12T14:24:40.711Z,27.80
2022-08-12T14:27:10.638Z,27.10
2022-08-12T14:30:06.073Z,26.60
2022-08-12T14:32:34.997Z,25.90
2022-08-12T14:35:05.110Z,25.40
2022-08-12T14:37:58.008Z,25.90
2022-08-12T14:40:23.423Z,26.70
2022-08-12T14:42:55.408Z,27.60
2022-08-12T14:45:37.211Z,27.70
2022-08-12T14:48:12.961Z,27.40
2022-08-12T14:51:02.864Z,26.80
2022-08-12T14:59:24.618Z,25.90
2022-08-12T15:01:54.614Z,26.20
2022-08-12T15:04:26.126Z,26.60
2022-08-12T15:06:55.039Z,26.40
2022-08-12T15:09:29.147Z,26.50
2022-08-12T15:12:03.361Z,27.10
2022-08-12T15:14:31.982Z,27.30
2022-08-12T15:17:00.440Z,27.90
2022-08-12T15:20:33.220Z,27.70
2022-08-12T15:22:36.995Z,27.20
2022-08-12T15:25:05.275Z,26.70
2022-08-12T15:28:05.498Z,26.60
2022-08-12T15:30:34.674Z,26.20
2022-08-12T15:33:12.984Z,25.70
2022-08-12T15:35:53.267Z,25.90
2022-08-12T15:38:30.886Z,25.70
2022-08-12T15:41:00.000Z,26.30
2022-08-12T15:43:51.286Z,26.20
2022-08-12T15:46:18.658Z,26.90
2022-08-12T15:48:52.490Z,26.90
2022-08-12T15:51:59.747Z,26.90
2022-08-12T15:54:33.803Z,26.60
2022-08-12T15:57:08.165Z,26.30
2022-08-12T16:00:04.626Z,26.40
2022-08-12T16:02:26.669Z,26.40
2022-08-12T16:04:54.471Z,26.40
2022-08-12T16:07:25.981Z,26.20
2022-08-12T16:10:06.890Z,26.40
2022-08-12T16:12:54.667Z,26.50
2022-08-12T16:15:29.503Z,26.80
2022-08-12T16:18:25.936Z,26.90
2022-08-12T16:20:49.733Z,26.90
2022-08-12T16:23:36.386Z,26.00
2022-08-12T16:26:14.645Z,25.70
2022-08-12T16:28:42.522Z,25.40
2022-08-12T16:31:16.968Z,25.30
2022-08-12T16:33:59.467Z,24.80
2022-08-12T16:36:29.132Z,24.50
2022-08-12T16:38:55.942Z,24.60
2022-08-12T16:41:23.505Z,24.70
2022-08-12T16:43:50.510Z,24.80
2022-08-12T16:46:32.529Z,24.80
2022-08-12T16:49:04.165Z,24.80
2022-08-12T16:51:46.416Z,25.00
2022-08-12T16:54:16.497Z,25.00
2022-08-12T16:56:55.176Z,24.90
2022-08-12T16:59:30.567Z,24.80
2022-08-12T17:01:58.657Z,24.70
2022-08-12T17:04:27.508Z,24.70
2022-08-12T17:06:54.486Z,24.50
2022-08-12T17:09:21.983Z,24.50
2022-08-12T17:11:49.989Z,24.50
2022-08-12T17:14:22.956Z,24.50
2022-08-12T17:16:52.521Z,24.40
2022-08-12T17:19:20.554Z,24.50
2022-08-12T17:22:08.931Z,24.40
2022-08-12T17:24:43.770Z,24.30
2022-08-12T17:27:15.832Z,24.20
2022-08-12T17:30:02.814Z,24.10
2022-08-12T17:32:33.558Z,24.00
2022-08-12T17:35:19.759Z,23.90
2022-08-12T17:37:48.490Z,23.70
2022-08-12T17:40:35.324Z,23.60
2022-08-12T17:43:55.587Z,23.50
2022-08-12T17:45:56.339Z,23.30
2022-08-12T17:48:34.974Z,23.30
2022-08-12T17:51:15.717Z,23.30
2022-08-12T17:54:10.953Z,23.20
2022-08-12T17:56:33.220Z,23.20
2022-08-12T17:59:00.926Z,23.20
2022-08-12T18:01:29.273Z,23.10
2022-08-12T18:04:21.547Z,23.10
2022-08-12T18:06:51.989Z,23.10
2022-08-12T18:09:21.810Z,23.00
2022-08-12T18:12:12.143Z,22.90
2022-08-12T18:14:41.643Z,22.80
2022-08-12T18:17:16.181Z,22.70
2022-08-12T18:20:04.274Z,22.60
2022-08-12T18:22:32.742Z,22.50
2022-08-12T18:25:03.917Z,22.50
2022-08-12T18:27:43.767Z,22.40
2022-08-12T18:30:16.360Z,22.30
2022-08-12T18:32:54.202Z,22.20
2022-08-12T18:35:47.978Z,22.10
2022-08-12T18:38:19.242Z,22.10
2022-08-12T18:41:07.312Z,21.90
2022-08-12T18:43:58.037Z,21.90
2022-08-12T18:46:53.702Z,21.80
2022-08-12T18:49:28.606Z,21.60
2022-08-12T18:52:04.138Z,21.50
2022-08-12T18:54:41.616Z,21.40
2022-08-12T18:58:06.858Z,21.30
2022-08-12T19:00:15.964Z,21.10
2022-08-12T19:02:45.319Z,20.90
2022-08-12T19:05:17.863Z,20.80
2022-08-12T19:08:00.566Z,20.70
2022-08-12T19:10:31.208Z,20.60
2022-08-12T19:13:23.515Z,20.70
2022-08-12T19:15:53.647Z,20.60
2022-08-12T19:18:22.282Z,20.60
2022-08-12T19:20:50.606Z,20.50
2022-08-12T19:23:21.021Z,20.30
2022-08-12T19:26:01.354Z,20.30
2022-08-12T19:28:35.587Z,20.20
2022-08-12T19:31:44.534Z,20.10
2022-08-12T19:38:02.636Z,19.80
2022-08-12T19:40:31.188Z,19.80
2022-08-12T19:43:17.319Z,19.60
2022-08-12T19:45:51.325Z,19.50
2022-08-12T19:48:19.791Z,19.30
2022-08-12T19:50:50.521Z,19.20
2022-08-12T19:53:22.898Z,19.00
2022-08-12T19:55:53.614Z,18.90
2022-08-12T19:58:21.551Z,18.80
2022-08-12T20:00:53.495Z,18.80
2022-08-12T20:03:38.198Z,18.60
2022-08-12T20:06:11.255Z,18.50
2022-08-12T20:08:49.276Z,18.40
2022-08-12T20:12:11.962Z,18.20
2022-08-12T20:14:18.046Z,18.10
2022-08-12T20:17:01.736Z,17.90
2022-08-12T20:20:16.809Z,17.80
2022-08-12T20:22:24.439Z,17.70
2022-08-12T20:25:01.611Z,17.50
2022-08-12T20:28:02.895Z,17.40
2022-08-12T20:30:20.627Z,17.20
2022-08-12T20:33:05.208Z,17.20
2022-08-12T20:36:05.830Z,17.10
2022-08-12T20:38:27.083Z,17.10
2022-08-12T20:40:55.914Z,17.20
2022-08-12T20:43:28.088Z,17.10
2022-08-12T20:45:58.442Z,17.20
2022-08-12T20:48:29.404Z,17.20
2022-08-12T20:51:04.299Z,17.10
2022-08-12T20:53:53.867Z,17.00
2022-08-12T20:56:30.760Z,17.00
2022-08-12T20:59:00.985Z,16.80
2022-08-12T21:01:45.923Z,16.70
2022-08-12T21:04:35.794Z,16.60
2022-08-12T21:07:08.980Z,16.50
2022-08-12T21:09:43.870Z,16.60
2022-08-12T21:12:31.201Z,16.50
2022-08-12T21:15:24.127Z,16.40
2022-08-12T21:18:11.046Z,16.40
2022-08-12T21:20:50.574Z,16.50
2022-08-12T21:23:21.101Z,16.60
2022-08-12T21:25:49.000Z,16.70
2022-08-12T21:28:21.117Z,16.70
2022-08-12T21:31:11.121Z,16.60
2022-08-12T21:33:58.465Z,16.80
2022-08-12T21:36:34.207Z,16.90
2022-08-12T21:39:18.219Z,17.10
2022-08-12T21:41:50.068Z,17.30
2022-08-12T21:44:23.983Z,17.30
2022-08-12T21:47:19.561Z,17.20
2022-08-12T21:50:02.215Z,17.30
2022-08-12T21:52:34.575Z,17.20
2022-08-12T21:55:18.936Z,17.20
2022-08-12T21:57:54.689Z,17.20
2022-08-12T22:00:34.419Z,17.20
2022-08-12T22:04:04.447Z,17.20
2022-08-12T22:06:31.501Z,17.10
2022-08-12T22:09:08.832Z,17.30
2022-08-12T22:11:44.031Z,17.50
2022-08-12T22:14:21.690Z,17.40
2022-08-12T22:16:52.402Z,17.30
2022-08-12T22:19:19.403Z,17.30
2022-08-12T22:21:52.509Z,17.30
2022-08-12T22:24:27.180Z,17.20
2022-08-12T22:27:07.938Z,17.20
2022-08-12T22:30:08.578Z,17.10
2022-08-12T22:32:41.886Z,17.10
2022-08-12T22:35:29.346Z,17.10
2022-08-12T22:38:07.529Z,17.00
2022-08-12T22:40:38.250Z,16.80
2022-08-12T22:43:24.491Z,16.80
2022-08-12T22:46:10.138Z,16.80
2022-08-12T22:48:36.922Z,17.00
2022-08-12T22:51:19.292Z,16.90
2022-08-12T22:53:49.379Z,17.20
2022-08-12T22:56:18.907Z,17.30
2022-08-12T22:58:47.193Z,17.30
2022-08-12T23:01:50.168Z,17.30
2022-08-12T23:04:03.010Z,17.20
2022-08-12T23:06:29.934Z,17.20
2022-08-12T23:08:56.784Z,17.20
2022-08-12T23:11:25.421Z,17.20
2022-08-12T23:14:04.253Z,17.20
2022-08-12T23:16:33.953Z,17.10
2022-08-12T23:19:10.531Z,17.10
2022-08-12T23:22:06.569Z,17.10
2022-08-12T23:24:56.010Z,17.00
2022-08-12T23:27:52.084Z,16.90
2022-08-12T23:30:32.347Z,16.70
2022-08-12T23:33:13.174Z,16.60
2022-08-12T23:35:59.406Z,16.60
2022-08-12T23:38:32.430Z,16.70
2022-08-12T23:41:02.036Z,16.80
2022-08-12T23:43:39.524Z,16.90
2022-08-12T23:46:08.733Z,16.90
2022-08-12T23:48:37.673Z,16.80
2022-08-12T23:51:22.727Z,16.70
2022-08-12T23:53:56.435Z,16.60
2022-08-12T23:56:27.338Z,16.40
2022-08-12T23:58:58.699Z,16.10
